createdAt,value
2022-11-16T00:01:56.675Z,94616.59
2022-11-16T00:04:45.025Z,94613.23
2022-11-16T00:10:22.909Z,94619.23
2022-11-16T00:13:10.755Z,94618.87
2022-11-16T00:15:59.560Z,94626.77
2022-11-16T00:18:48.013Z,94628.34
2022-11-16T00:21:36.859Z,94628.78
2022-11-16T00:27:12.452Z,94637.67
2022-11-16T00:32:47.144Z,94634.60
2022-11-16T00:35:42.333Z,94626.34
2022-11-16T00:41:20.266Z,94612.65
2022-11-16T00:44:09.377Z,94607.75
2022-11-16T00:46:58.768Z,94612.66
2022-11-16T00:49:49.154Z,94617.56
2022-11-16T00:55:23.834Z,94636.36
2022-11-16T01:00:54.461Z,94645.14
2022-11-16T01:03:43.382Z,94649.13
2022-11-16T01:09:18.110Z,94658.56
2022-11-16T01:14:53.538Z,94669.25
2022-11-16T01:20:32.145Z,94667.42
2022-11-16T01:26:08.093Z,94667.27
2022-11-16T01:34:29.893Z,94684.77
2022-11-16T01:39:58.348Z,94692.94
2022-11-16T01:45:40.378Z,94688.77
2022-11-16T01:51:15.721Z,94700.73
2022-11-16T01:56:47.847Z,94705.82
2022-11-16T02:05:26.201Z,94721.73
2022-11-16T02:20:04.859Z,94712.92
2022-11-16T02:25:51.310Z,94694.91
2022-11-16T02:34:01.210Z,94697.88
2022-11-16T02:39:38.103Z,94687.73
2022-11-16T02:45:14.774Z,94689.61
2022-11-16T02:50:49.052Z,94686.45
2022-11-16T02:53:42.830Z,94687.95
2022-11-16T02:59:22.044Z,94696.58
2022-11-16T03:07:53.401Z,94681.22
2022-11-16T03:13:32.290Z,94681.63
2022-11-16T03:19:09.236Z,94672.77
2022-11-16T03:24:42.848Z,94661.30
2022-11-16T03:30:23.966Z,94657.16
2022-11-16T03:36:03.394Z,94651.91
2022-11-16T03:38:53.597Z,94655.69
2022-11-16T03:41:42.993Z,94668.31
2022-11-16T03:44:31.415Z,94663.55
2022-11-16T03:47:19.948Z,94674.53
2022-11-16T03:50:10.614Z,94668.05
2022-11-16T03:52:58.968Z,94672.37
2022-11-16T03:55:49.929Z,94675.00
2022-11-16T04:01:24.191Z,94675.84
2022-11-16T04:09:53.494Z,94669.07
2022-11-16T04:15:49.107Z,94662.67
2022-11-16T04:18:55.241Z,94660.88
2022-11-16T04:27:35.654Z,94648.66
2022-11-16T04:30:24.968Z,94647.08
2022-11-16T04:36:20.574Z,94653.05
2022-11-16T04:42:16.248Z,94648.39
2022-11-16T04:47:44.043Z,94656.16
2022-11-16T04:50:34.014Z,94662.62
2022-11-16T04:53:24.200Z,94659.09
2022-11-16T04:59:00.830Z,94663.25
2022-11-16T05:04:27.632Z,94653.08
2022-11-16T05:10:04.675Z,94641.47
2022-11-16T05:12:54.742Z,94644.17
2022-11-16T05:18:30.882Z,94639.39
2022-11-16T05:21:19.464Z,94648.02
2022-11-16T05:24:26.347Z,94645.97
2022-11-16T05:27:17.312Z,94641.61
2022-11-16T05:32:55.070Z,94642.91
2022-11-16T05:41:45.494Z,94647.47
2022-11-16T05:47:22.289Z,94651.11
2022-11-16T05:55:41.723Z,94656.24
2022-11-16T06:01:17.552Z,94652.62
2022-11-16T06:06:51.599Z,94659.03
2022-11-16T06:09:39.713Z,94660.50
2022-11-16T06:15:14.253Z,94667.42
2022-11-16T06:18:03.337Z,94668.34
2022-11-16T06:23:39.419Z,94671.48
2022-11-16T06:26:27.827Z,94668.97
2022-11-16T06:35:05.149Z,94669.44
2022-11-16T06:40:54.444Z,94675.08
2022-11-16T06:43:43.869Z,94680.87
2022-11-16T06:49:11.310Z,94690.37
2022-11-16T06:54:40.241Z,94693.11
2022-11-16T06:57:30.381Z,94687.11
2022-11-16T07:03:05.015Z,94691.58
2022-11-16T07:11:22.396Z,94701.76
2022-11-16T07:16:57.957Z,94695.45
2022-11-16T07:22:34.071Z,94703.22
2022-11-16T07:28:06.691Z,94708.75
2022-11-16T07:33:41.065Z,94709.29
2022-11-16T07:36:29.775Z,94711.13
2022-11-16T07:42:07.857Z,94716.67
2022-11-16T07:47:41.303Z,94719.64
2022-11-16T07:53:35.907Z,94721.00
2022-11-16T07:56:24.827Z,94731.30
2022-11-16T08:01:58.955Z,94730.75
2022-11-16T08:07:35.153Z,94736.20
2022-11-16T08:10:24.800Z,94743.59
2022-11-16T08:13:13.314Z,94741.58
2022-11-16T08:16:02.649Z,94741.47
2022-11-16T08:18:50.778Z,94744.98
2022-11-16T08:26:58.884Z,94739.76
2022-11-16T08:32:35.419Z,94725.40
2022-11-16T08:35:24.156Z,94736.03
2022-11-16T08:40:55.181Z,94732.91
2022-11-16T08:43:44.479Z,94728.84
2022-11-16T08:49:10.664Z,94727.75
2022-11-16T08:54:40.666Z,94729.82
2022-11-16T09:00:21.588Z,94723.88
2022-11-16T09:05:51.528Z,94732.69
2022-11-16T09:11:27.755Z,94728.41
2022-11-16T09:14:17.152Z,94728.13
2022-11-16T09:17:05.656Z,94731.27
2022-11-16T09:19:53.837Z,94732.17
2022-11-16T09:22:54.869Z,94729.86
2022-11-16T09:25:45.137Z,94729.86
2022-11-16T09:31:24.745Z,94728.83
2022-11-16T09:34:15.764Z,94739.87
2022-11-16T09:37:04.279Z,94740.34
2022-11-16T09:39:52.742Z,94735.31
2022-11-16T09:42:48.480Z,94734.22
2022-11-16T09:48:26.917Z,94730.78
2022-11-16T09:51:16.675Z,94738.72
2022-11-16T10:02:27.469Z,94745.74
2022-11-16T10:08:01.177Z,94735.52
2022-11-16T10:13:45.550Z,94733.62
2022-11-16T10:19:26.719Z,94725.48
2022-11-16T10:25:14.981Z,94718.16
2022-11-16T10:28:13.987Z,94724.92
2022-11-16T10:33:51.725Z,94716.77
2022-11-16T10:39:21.547Z,94712.22
2022-11-16T10:45:00.940Z,94698.36
2022-11-16T10:50:54.902Z,94698.55
2022-11-16T10:59:19.141Z,94687.63
2022-11-16T11:05:12.944Z,94688.78
2022-11-16T11:10:48.892Z,94683.34
2022-11-16T11:16:25.046Z,94685.19
2022-11-16T11:22:11.926Z,94677.31
2022-11-16T11:27:50.628Z,94678.36
2022-11-16T11:30:38.906Z,94680.06
2022-11-16T11:33:28.311Z,94670.07
2022-11-16T11:44:51.039Z,94664.39
2022-11-16T11:48:00.838Z,94665.47
2022-11-16T11:56:31.714Z,94649.51
2022-11-16T11:59:23.030Z,94644.27
2022-11-16T12:05:44.587Z,94639.20
2022-11-16T12:08:52.678Z,94644.92
2022-11-16T12:11:48.491Z,94640.81
2022-11-16T12:14:51.444Z,94646.30
2022-11-16T12:17:44.272Z,94641.12
2022-11-16T12:20:37.323Z,94639.86
2022-11-16T12:35:26.734Z,94627.47
2022-11-16T12:42:03.253Z,94619.24
2022-11-16T12:45:05.810Z,94622.02
2022-11-16T12:50:56.939Z,94612.23
2022-11-16T12:53:53.536Z,94604.44
2022-11-16T13:02:49.031Z,94588.84
2022-11-16T13:08:43.275Z,94571.27
2022-11-16T13:14:24.433Z,94572.64
2022-11-16T13:17:17.355Z,94574.58
2022-11-16T13:22:56.176Z,94565.03
2022-11-16T13:25:48.114Z,94559.48
2022-11-16T13:31:29.485Z,94554.10
2022-11-16T13:37:42.357Z,94541.63
2022-11-16T13:40:32.383Z,94538.62
2022-11-16T13:46:02.644Z,94539.36
2022-11-16T13:48:50.992Z,94530.78
2022-11-16T13:54:45.194Z,94532.55
2022-11-16T13:57:32.794Z,94533.91
2022-11-16T14:00:31.501Z,94531.03
2022-11-16T14:06:50.234Z,94527.30
2022-11-16T14:15:52.792Z,94517.05
2022-11-16T14:21:32.717Z,94511.02
2022-11-16T14:27:10.497Z,94510.03
2022-11-16T14:32:48.129Z,94502.95
2022-11-16T14:41:07.825Z,94498.30
2022-11-16T14:46:45.237Z,94503.31
2022-11-16T14:52:32.630Z,94498.05
2022-11-16T14:58:20.361Z,94505.37
2022-11-16T15:01:14.266Z,94512.38
2022-11-16T15:06:53.040Z,94502.24
2022-11-16T15:09:47.685Z,94500.43
2022-11-16T15:12:46.374Z,94491.13
2022-11-16T15:15:37.658Z,94494.40
2022-11-16T15:18:25.977Z,94488.44
2022-11-16T15:21:24.109Z,94484.23
2022-11-16T15:24:29.769Z,94475.70
2022-11-16T15:30:02.052Z,94474.29
2022-11-16T15:32:52.567Z,94480.86
2022-11-16T15:38:25.080Z,94466.77
2022-11-16T15:41:13.483Z,94459.64
2022-11-16T15:44:19.217Z,94464.58
2022-11-16T15:49:40.255Z,94462.56
2022-11-16T15:55:31.629Z,94472.68
2022-11-16T15:58:24.517Z,94469.38
2022-11-16T16:04:04.443Z,94471.42
2022-11-16T16:09:42.662Z,94464.03
2022-11-16T16:18:20.291Z,94453.72
2022-11-16T16:23:56.523Z,94449.36
2022-11-16T16:29:31.997Z,94443.05
2022-11-16T16:35:08.872Z,94449.42
2022-11-16T16:38:00.990Z,94439.20
2022-11-16T16:43:36.303Z,94439.02
2022-11-16T16:49:24.540Z,94440.69
2022-11-16T16:54:56.843Z,94431.49
2022-11-16T17:00:34.730Z,94439.45
2022-11-16T17:03:22.797Z,94431.73
2022-11-16T17:06:11.034Z,94430.98
2022-11-16T17:09:01.848Z,94429.75
2022-11-16T17:17:15.291Z,94417.84
2022-11-16T17:22:53.735Z,94417.20
2022-11-16T17:25:46.741Z,94423.34
2022-11-16T17:28:37.156Z,94423.27
2022-11-16T17:34:15.344Z,94427.92
2022-11-16T17:39:50.253Z,94421.51
2022-11-16T17:48:01.847Z,94413.27
2022-11-16T17:50:50.253Z,94410.47
2022-11-16T17:56:23.155Z,94416.85
2022-11-16T18:01:58.509Z,94415.02
2022-11-16T18:04:51.055Z,94408.72
2022-11-16T18:07:38.624Z,94408.91
2022-11-16T18:10:27.459Z,94390.47
2022-11-16T18:13:17.322Z,94377.22
2022-11-16T18:18:48.528Z,94358.36
2022-11-16T18:21:41.631Z,94358.84
2022-11-16T18:27:18.231Z,94336.89
2022-11-16T18:30:08.551Z,94331.91
2022-11-16T18:35:47.308Z,94332.20
2022-11-16T18:41:19.712Z,94328.51
2022-11-16T18:44:09.033Z,94333.06
2022-11-16T18:49:45.109Z,94313.45
2022-11-16T18:52:32.969Z,94308.70
2022-11-16T18:55:23.130Z,94301.72
2022-11-16T19:00:55.737Z,94285.84
2022-11-16T19:06:33.197Z,94274.55
2022-11-16T19:14:55.146Z,94269.95
2022-11-16T19:20:21.693Z,94272.33
2022-11-16T19:28:46.004Z,94286.57
2022-11-16T19:34:16.189Z,94298.53
2022-11-16T19:39:53.871Z,94303.89
2022-11-16T19:45:32.705Z,94291.44
2022-11-16T19:51:10.902Z,94276.78
2022-11-16T19:54:00.443Z,94260.16
2022-11-16T19:59:33.941Z,94263.35
2022-11-16T20:05:01.383Z,94241.50
2022-11-16T20:10:38.189Z,94240.91
2022-11-16T20:13:29.347Z,94243.50
2022-11-16T20:19:25.356Z,94263.08
2022-11-16T20:25:02.359Z,94255.58
2022-11-16T20:30:30.227Z,94257.30
2022-11-16T20:36:05.851Z,94248.91
2022-11-16T20:41:43.975Z,94250.17
2022-11-16T20:47:14.434Z,94238.64
2022-11-16T20:52:52.993Z,94242.81
2022-11-16T20:55:42.503Z,94236.73
2022-11-16T21:01:35.552Z,94234.14
2022-11-16T21:10:19.423Z,94211.84
2022-11-16T21:16:12.304Z,94223.02
2022-11-16T21:19:00.784Z,94228.89
2022-11-16T21:21:49.960Z,94228.18
2022-11-16T21:24:40.723Z,94229.24
2022-11-16T21:27:29.044Z,94226.75
2022-11-16T21:30:18.224Z,94226.64
2022-11-16T21:33:06.852Z,94221.76
2022-11-16T21:35:55.539Z,94221.66
2022-11-16T21:38:43.867Z,94226.14
2022-11-16T21:41:32.400Z,94233.09
2022-11-16T21:52:51.504Z,94235.61
2022-11-16T21:59:00.872Z,94235.10
2022-11-16T22:02:05.135Z,94225.73
2022-11-16T22:05:14.141Z,94228.63
2022-11-16T22:10:56.318Z,94216.57
2022-11-16T22:13:45.713Z,94215.41
2022-11-16T22:22:38.158Z,94213.00
2022-11-16T22:25:26.566Z,94215.70
2022-11-16T22:31:18.066Z,94218.17
2022-11-16T22:34:08.450Z,94211.14
2022-11-16T22:36:56.991Z,94199.84
2022-11-16T22:39:46.155Z,94190.67
2022-11-16T22:42:34.709Z,94189.70
2022-11-16T22:45:23.851Z,94195.33
2022-11-16T22:51:04.972Z,94176.59
2022-11-16T22:53:55.869Z,94152.73
2022-11-16T22:56:44.151Z,94155.55
2022-11-16T23:02:23.808Z,94225.58
2022-11-16T23:05:12.942Z,94221.20
2022-11-16T23:11:09.877Z,94219.66
2022-11-16T23:14:16.356Z,94168.36
2022-11-16T23:17:05.773Z,94140.25
2022-11-16T23:20:17.309Z,94147.38
2022-11-16T23:26:07.122Z,94172.84
2022-11-16T23:31:36.548Z,94220.19
2022-11-16T23:37:09.663Z,94255.47
2022-11-16T23:43:00.672Z,94250.47
2022-11-16T23:45:49.312Z,94212.53
2022-11-16T23:48:37.463Z,94150.94
2022-11-16T23:54:06.604Z,94158.73
2022-11-16T23:56:55.356Z,94167.67
